Time;durP1;ratioP1;P1;durP2;ratioP2;P2;SDS_P1;SDS_P2;PMS_P1;PMS_P2;Temp;Humidity;BMP_temperature;BMP_pressure;BME280_temperature;BME280_humidity;BME280_pressure;Samples;Min_cycle;Max_cycle;Signal;HPM_P1;HPM_P2
2023/12/04 00:01:26;;;;;;;3.72;3.40;;;;;;;2.48;100.00;101201.44;5045136;28;20415;-82
2023/12/04 00:03:52;;;;;;;0.40;0.40;;;;;;;2.46;100.00;101234.19;5043530;28;20053;-82
2023/12/04 00:06:19;;;;;;;2.78;2.63;;;;;;;1.90;100.00;101153.94;5023613;28;20537;-83
2023/12/04 00:08:45;;;;;;;0.47;0.47;;;;;;;2.22;100.00;101210.59;5055600;28;20094;-79
2023/12/04 00:11:11;;;;;;;7.95;7.53;;;;;;;1.95;100.00;101161.03;5063220;28;20036;-82
2023/12/04 00:13:37;;;;;;;0.73;0.73;;;;;;;1.53;100.00;101078.88;5047242;28;20037;-80
2023/12/04 00:16:06;;;;;;;0.40;0.40;;;;;;;2.26;100.00;101202.16;5069160;28;20051;-79
2023/12/04 00:18:32;;;;;;;0.57;0.57;;;;;;;1.65;100.00;101132.91;5040351;28;20460;-80
2023/12/04 00:20:57;;;;;;;0.32;0.32;;;;;;;2.71;100.00;101306.13;5064680;28;20036;-77
2023/12/04 00:23:23;;;;;;;0.57;0.57;;;;;;;2.60;100.00;101322.88;5069681;28;20462;-78
2023/12/04 00:25:48;;;;;;;0.30;0.30;;;;;;;2.88;100.00;101350.94;5054859;28;20044;-78
2023/12/04 00:28:14;;;;;;;0.80;0.75;;;;;;;2.56;100.00;101285.56;5046527;28;20045;-79
2023/12/04 00:30:40;;;;;;;0.93;0.93;;;;;;;2.16;100.00;101216.38;5066475;28;20122;-78
2023/12/04 00:33:05;;;;;;;6.55;3.50;;;;;;;2.18;100.00;101227.72;5061399;28;20048;-80
2023/12/04 00:35:31;;;;;;;0.88;0.88;;;;;;;2.31;100.00;101248.16;5046387;28;20048;-78
2023/12/04 00:37:56;;;;;;;0.75;0.68;;;;;;;0.92;100.00;101032.88;5065706;28;20452;-79
2023/12/04 00:40:22;;;;;;;0.32;0.32;;;;;;;2.92;100.00;101371.91;5060380;28;20515;-78
2023/12/04 00:42:47;;;;;;;0.30;0.30;;;;;;;2.57;100.00;101322.72;5068330;28;20083;-79
2023/12/04 00:45:15;;;;;;;0.50;0.50;;;;;;;2.23;100.00;101280.59;5047076;28;20049;-79
2023/12/04 00:47:40;;;;;;;0.32;0.32;;;;;;;2.05;100.00;101240.88;5063348;28;20049;-77
2023/12/04 00:50:06;;;;;;;0.40;0.40;;;;;;;2.11;100.00;101256.72;5074475;28;20490;-78
2023/12/04 00:52:32;;;;;;;0.60;0.60;;;;;;;1.91;100.00;101242.81;5065417;28;20024;-78
2023/12/04 00:54:57;;;;;;;0.60;0.57;;;;;;;1.81;100.00;101244.06;5049456;28;20110;-80
2023/12/04 00:57:23;;;;;;;2.25;1.98;;;;;;;2.42;100.00;101349.69;5062208;28;20787;-79
2023/12/04 00:59:48;;;;;;;1.15;1.10;;;;;;;1.40;100.00;101191.16;5065546;28;20079;-79
2023/12/04 01:02:14;;;;;;;8.85;8.30;;;;;;;1.54;100.00;101198.72;5061724;28;20153;-80
2023/12/04 01:04:41;;;;;;;3.92;3.72;;;;;;;2.32;100.00;101347.47;5067955;28;20044;-79
2023/12/04 01:07:07;;;;;;;0.50;0.50;;;;;;;2.18;100.00;101313.16;5070335;28;20083;-79
2023/12/04 01:09:35;;;;;;;0.40;0.40;;;;;;;2.17;100.00;101293.22;5070557;28;20072;-79
2023/12/04 01:12:02;;;;;;;2.05;1.95;;;;;;;2.73;100.00;101405.53;5066893;28;20133;-80
2023/12/04 01:14:28;;;;;;;2.05;1.95;;;;;;;1.70;100.00;101289.19;5067463;28;20205;-79
2023/12/04 01:16:53;;;;;;;0.40;0.40;;;;;;;2.24;100.00;101346.19;5056616;28;20770;-79
2023/12/04 01:19:19;;;;;;;5.18;2.38;;;;;;;2.30;100.00;101336.16;5048338;28;20052;-79
2023/12/04 01:21:45;;;;;;;1.08;1.05;;;;;;;2.33;100.00;101406.22;5062626;28;20051;-80
2023/12/04 01:24:11;;;;;;;0.75;0.75;;;;;;;2.41;100.00;101368.63;5067422;28;20040;-80
2023/12/04 01:26:36;;;;;;;0.30;0.30;;;;;;;1.76;100.00;101252.41;5065598;28;20044;-80
2023/12/04 01:29:02;;;;;;;0.30;0.30;;;;;;;2.31;100.00;101353.44;5047914;28;20032;-78
2023/12/04 01:31:27;;;;;;;1.40;1.30;;;;;;;2.10;100.00;101320.50;5038900;28;20139;-79
2023/12/04 01:33:53;;;;;;;0.52;0.52;;;;;;;1.82;100.00;101258.75;5046218;28;20083;-79
2023/12/04 01:36:18;;;;;;;0.52;0.52;;;;;;;2.03;100.00;101322.75;5061327;28;20094;-78
2023/12/04 01:38:44;;;;;;;0.30;0.30;;;;;;;1.84;100.00;101290.78;5060058;28;21872;-82
2023/12/04 01:41:09;;;;;;;0.40;0.40;;;;;;;1.55;100.00;101237.59;5063654;28;20050;-81
2023/12/04 01:43:35;;;;;;;0.40;0.40;;;;;;;1.95;100.00;101308.56;5062960;28;20032;-79
2023/12/04 01:46:01;;;;;;;0.40;0.40;;;;;;;2.41;100.00;101375.50;5062811;28;20048;-79
2023/12/04 01:48:28;;;;;;;0.30;0.30;;;;;;;2.38;100.00;101384.00;5065368;28;20132;-78
2023/12/04 01:50:55;;;;;;;6.50;6.15;;;;;;;1.58;100.00;101258.44;5063572;28;20522;-78
2023/12/04 01:53:21;;;;;;;0.30;0.30;;;;;;;2.17;100.00;101381.25;5049843;28;20033;-80
2023/12/04 01:55:47;;;;;;;2.97;2.67;;;;;;;1.92;100.00;101347.19;5062473;28;20060;-79
2023/12/04 01:58:13;;;;;;;3.42;3.22;;;;;;;1.67;100.00;101326.16;5063922;28;20135;-79
2023/12/04 02:00:38;;;;;;;1.75;1.65;;;;;;;1.75;100.00;101312.72;5065949;28;20464;-79
2023/12/04 02:03:04;;;;;;;0.40;0.40;;;;;;;2.49;100.00;101428.59;5063826;28;20106;-79
2023/12/04 02:05:31;;;;;;;0.52;0.52;;;;;;;2.56;100.00;101446.19;5050861;28;20052;-80
2023/12/04 02:07:57;;;;;;;0.65;0.65;;;;;;;2.00;100.00;101357.13;5062054;28;20058;-78
2023/12/04 02:10:23;;;;;;;0.45;0.45;;;;;;;2.57;100.00;101439.31;5043182;28;20385;-79
2023/12/04 02:12:50;;;;;;;0.40;0.40;;;;;;;2.26;100.00;101399.84;5062837;28;20122;-79
2023/12/04 02:15:16;;;;;;;7.72;7.25;;;;;;;2.04;100.00;101365.94;5058394;28;20052;-79
2023/12/04 02:17:45;;;;;;;0.40;0.40;;;;;;;1.83;100.00;101333.00;5066541;28;20458;-81
2023/12/04 02:20:14;;;;;;;0.40;0.40;;;;;;;1.97;100.00;101385.44;5057413;28;20045;-81
2023/12/04 02:22:40;;;;;;;2.30;2.20;;;;;;;1.32;100.00;101256.25;5060878;28;20487;-81
2023/12/04 02:25:07;;;;;;;0.30;0.30;;;;;;;2.44;100.00;101448.19;5033546;28;20047;-79
2023/12/04 02:27:49;;;;;;;0.30;0.30;;;;;;;2.49;100.00;101445.00;5063499;28;20571;-80
2023/12/04 02:30:18;;;;;;;0.30;0.30;;;;;;;2.03;100.00;101397.81;5042604;28;20535;-80
2023/12/04 02:32:46;;;;;;;0.40;0.40;;;;;;;1.78;100.00;101343.91;5039542;28;20506;-80
2023/12/04 02:35:13;;;;;;;0.52;0.52;;;;;;;1.26;100.00;101257.72;5059257;28;20041;-81
2023/12/04 02:37:40;;;;;;;1.42;1.38;;;;;;;1.11;100.00;101230.19;5046752;28;20033;-84
2023/12/04 02:40:06;;;;;;;0.85;0.85;;;;;;;2.06;100.00;101409.22;5044207;28;20520;-81
2023/12/04 02:42:32;;;;;;;3.03;2.83;;;;;;;1.95;100.00;101375.84;5064153;28;20074;-80
2023/12/04 02:44:58;;;;;;;27.25;13.02;;;;;;;2.16;100.00;101412.25;5058024;28;20052;-79
2023/12/04 02:47:23;;;;;;;0.40;0.40;;;;;;;1.71;100.00;101309.09;5067783;28;20032;-81
2023/12/04 02:49:49;;;;;;;0.50;0.50;;;;;;;1.03;100.00;101203.94;5065899;28;20105;-84
2023/12/04 02:52:15;;;;;;;0.40;0.40;;;;;;;2.33;100.00;101413.97;5061793;28;20044;-81
2023/12/04 02:54:40;;;;;;;0.50;0.50;;;;;;;2.31;100.00;101420.78;5056573;28;20567;-81
2023/12/04 02:57:06;;;;;;;0.50;0.50;;;;;;;1.93;100.00;101354.16;5056661;28;20067;-78
2023/12/04 02:59:31;;;;;;;4.03;3.38;;;;;;;1.90;100.00;101355.78;5058226;28;20499;-78
2023/12/04 03:01:57;;;;;;;0.85;0.85;;;;;;;1.98;100.00;101347.50;5067123;28;20036;-78
2023/12/04 03:04:22;;;;;;;0.65;0.65;;;;;;;1.80;100.00;101369.06;5064084;28;20059;-80
2023/12/04 03:06:48;;;;;;;0.77;0.77;;;;;;;1.55;100.00;101306.56;5061513;28;20083;-78
2023/12/04 03:09:13;;;;;;;0.30;0.30;;;;;;;2.05;100.00;101394.47;5062986;28;20106;-78
2023/12/04 03:11:40;;;;;;;4.43;4.22;;;;;;;1.62;100.00;101363.84;5058961;28;20040;-77
2023/12/04 03:14:05;;;;;;;0.50;0.50;;;;;;;1.59;100.00;101334.34;5044184;28;20047;-80
2023/12/04 03:16:31;;;;;;;0.40;0.40;;;;;;;1.63;100.00;101370.78;5034249;28;20036;-78
2023/12/04 03:18:57;;;;;;;1.85;0.60;;;;;;;1.84;100.00;101375.28;5061954;28;20147;-77
2023/12/04 03:21:22;;;;;;;0.30;0.30;;;;;;;1.61;100.00;101343.06;5055603;28;20052;-79
2023/12/04 03:23:48;;;;;;;0.40;0.40;;;;;;;1.68;100.00;101339.97;5061798;28;20412;-78
2023/12/04 03:26:13;;;;;;;0.43;0.43;;;;;;;1.07;100.00;101321.28;5038689;28;20068;-80
2023/12/04 03:28:42;;;;;;;1.27;1.17;;;;;;;1.54;100.00;101497.03;5040994;28;20073;-79
2023/12/04 03:31:08;;;;;;;4.03;1.30;;;;;;;0.96;100.00;101385.31;5040085;28;20486;-78
2023/12/04 03:33:35;;;;;;;0.40;0.40;;;;;;;1.18;100.00;101349.47;5060227;28;20082;-77
2023/12/04 03:36:01;;;;;;;0.70;0.70;;;;;;;1.56;100.00;101378.16;5061864;28;20451;-78
2023/12/04 03:38:27;;;;;;;2.53;2.35;;;;;;;1.85;100.00;101449.50;5059147;28;20051;-78
2023/12/04 03:40:54;;;;;;;0.40;0.40;;;;;;;1.29;100.00;101323.28;5060926;28;20033;-80
2023/12/04 03:43:20;;;;;;;0.40;0.40;;;;;;;1.78;100.00;101440.56;5059421;28;20106;-79
2023/12/04 03:45:45;;;;;;;0.50;0.50;;;;;;;1.33;100.00;101426.06;5062336;28;20527;-80
2023/12/04 03:48:11;;;;;;;6.70;6.30;;;;;;;1.83;100.00;101505.50;5066609;28;20094;-81
2023/12/04 03:50:37;;;;;;;0.75;0.75;;;;;;;1.50;100.00;101412.34;5049299;28;20044;-81
2023/12/04 03:53:02;;;;;;;0.77;0.77;;;;;;;1.66;100.00;101425.28;5070805;28;20078;-80
2023/12/04 03:55:28;;;;;;;0.40;0.40;;;;;;;1.78;100.00;101439.66;5062470;28;20407;-80
2023/12/04 03:57:54;;;;;;;5.28;4.88;;;;;;;1.74;100.00;101521.41;5068088;28;20492;-80
2023/12/04 04:00:20;;;;;;;0.70;0.57;;;;;;;1.53;100.00;101443.53;5066406;28;20463;-79
2023/12/04 04:02:46;;;;;;;0.90;0.60;;;;;;;2.29;100.00;101521.72;5071269;28;20072;-80
2023/12/04 04:05:11;;;;;;;0.43;0.43;;;;;;;1.23;100.00;101412.66;5060287;28;20072;-79
2023/12/04 04:07:37;;;;;;;0.75;0.75;;;;;;;1.25;100.00;101389.47;5073711;28;20089;-83
2023/12/04 04:10:06;;;;;;;0.73;0.73;;;;;;;1.24;100.00;101434.22;5065324;28;20743;-81
2023/12/04 04:12:33;;;;;;;0.50;0.50;;;;;;;1.19;100.00;101425.31;5065761;28;20053;-82
2023/12/04 04:14:58;;;;;;;2.58;2.47;;;;;;;1.86;100.00;101451.28;5064371;28;20054;-80
2023/12/04 04:17:27;;;;;;;0.93;0.93;;;;;;;1.18;100.00;101419.28;5066391;28;20049;-82
2023/12/04 04:19:53;;;;;;;0.65;0.65;;;;;;;0.93;100.00;101299.88;5065307;28;20488;-80
2023/12/04 04:22:22;;;;;;;0.68;0.68;;;;;;;1.69;100.00;101531.50;5063375;28;20056;-80
2023/12/04 04:24:48;;;;;;;0.50;0.50;;;;;;;1.47;100.00;101445.78;5068005;28;20056;-81
2023/12/04 04:27:13;;;;;;;1.70;1.65;;;;;;;2.30;100.00;101541.63;5070712;28;20531;-80
2023/12/04 04:29:39;;;;;;;0.50;0.50;;;;;;;2.19;100.00;101536.69;5065130;28;20044;-79
2023/12/04 04:32:05;;;;;;;1.40;1.30;;;;;;;2.25;100.00;101511.13;5067411;28;20487;-82
2023/12/04 04:34:31;;;;;;;1.35;1.25;;;;;;;2.38;100.00;101541.13;5045834;28;20025;-81
2023/12/04 04:36:56;;;;;;;3.50;3.30;;;;;;;1.90;100.00;101448.06;5063642;28;20064;-80
2023/12/04 04:39:22;;;;;;;4.13;3.92;;;;;;;1.61;100.00;101400.84;5065457;28;20552;-79
2023/12/04 04:41:47;;;;;;;0.40;0.40;;;;;;;1.96;100.00;101558.78;5064024;28;20132;-80
2023/12/04 04:44:13;;;;;;;0.82;0.75;;;;;;;1.29;100.00;101470.66;5067316;28;20484;-82
2023/12/04 04:46:38;;;;;;;0.60;0.60;;;;;;;2.10;100.00;101552.63;5063224;28;20033;-79
2023/12/04 04:49:07;;;;;;;0.52;0.52;;;;;;;1.03;100.00;101327.97;5070197;28;20403;-81
2023/12/04 04:51:34;;;;;;;0.50;0.50;;;;;;;1.86;100.00;101487.53;5067535;28;20040;-79
2023/12/04 04:54:03;;;;;;;0.32;0.32;;;;;;;1.02;100.00;101424.41;5066110;28;20895;-80
2023/12/04 04:56:29;;;;;;;0.50;0.50;;;;;;;2.21;100.00;101579.97;5052195;28;20057;-81
2023/12/04 04:58:55;;;;;;;0.73;0.73;;;;;;;1.42;100.00;101423.97;5065142;28;20116;-79
2023/12/04 05:01:21;;;;;;;7.43;3.58;;;;;;;1.39;100.00;101393.69;5053592;28;20127;-79
2023/12/04 05:03:46;;;;;;;0.40;0.40;;;;;;;2.33;100.00;101572.84;5061190;28;20086;-80
2023/12/04 05:06:12;;;;;;;1.65;1.55;;;;;;;2.14;100.00;101554.56;5048160;28;20076;-79
2023/12/04 05:08:38;;;;;;;1.08;0.98;;;;;;;2.00;100.00;101533.13;5047699;28;20060;-78
2023/12/04 05:11:04;;;;;;;0.30;0.30;;;;;;;1.40;100.00;101421.28;5050399;28;20104;-80
2023/12/04 05:13:30;;;;;;;2.00;1.90;;;;;;;1.85;100.00;101511.59;5048421;28;20407;-81
2023/12/04 05:15:55;;;;;;;2.10;2.03;;;;;;;1.84;100.00;101492.59;5066872;28;20135;-79
2023/12/04 05:18:21;;;;;;;4.20;4.00;;;;;;;1.70;100.00;101470.28;5065269;28;20094;-79
2023/12/04 05:20:46;;;;;;;11.45;10.55;;;;;;;1.39;100.00;101445.38;5040558;28;20044;-83
2023/12/04 05:23:12;;;;;;;10.80;10.15;;;;;;;1.40;100.00;101429.06;5061060;28;20036;-81
2023/12/04 05:25:37;;;;;;;1.83;1.75;;;;;;;1.26;100.00;101451.63;5067060;28;20082;-79
2023/12/04 05:28:04;;;;;;;1.63;1.52;;;;;;;1.10;100.00;101436.06;5059003;28;20105;-79
2023/12/04 05:30:29;;;;;;;0.50;0.50;;;;;;;1.79;100.00;101532.00;5035196;28;20052;-81
2023/12/04 05:32:55;;;;;;;3.70;3.50;;;;;;;1.48;100.00;101494.13;5040464;28;20114;-79
2023/12/04 05:35:20;;;;;;;0.20;0.20;;;;;;;1.47;100.00;101551.81;5041768;28;20044;-78
2023/12/04 05:37:46;;;;;;;0.40;0.40;;;;;;;0.95;100.00;101512.72;5056529;28;20052;-84
2023/12/04 05:40:12;;;;;;;0.75;0.75;;;;;;;1.97;100.00;101633.94;5059962;28;20056;-77
2023/12/04 05:42:37;;;;;;;1.10;1.08;;;;;;;2.05;100.00;101611.03;5060808;28;20041;-78
2023/12/04 05:45:05;;;;;;;1.48;1.48;;;;;;;1.29;100.00;101471.56;5042477;28;20058;-78
2023/12/04 05:47:30;;;;;;;6.22;5.70;;;;;;;2.06;100.00;101597.25;5057304;28;20063;-76
2023/12/04 05:49:56;;;;;;;0.70;0.70;;;;;;;2.18;100.00;101616.06;5059095;28;20112;-78
2023/12/04 05:52:22;;;;;;;0.52;0.52;;;;;;;2.17;100.00;101610.78;5062170;28;20070;-77
2023/12/04 05:54:47;;;;;;;1.70;1.60;;;;;;;2.32;100.00;101637.53;5053991;28;20082;-77
2023/12/04 05:57:13;;;;;;;1.02;1.02;;;;;;;1.67;100.00;101525.34;5057326;28;20412;-80
2023/12/04 05:59:38;;;;;;;2.90;2.80;;;;;;;1.60;100.00;101520.66;5060980;28;20052;-78
2023/12/04 06:02:07;;;;;;;2.10;0.75;;;;;;;2.00;100.00;101644.44;5037871;28;20045;-79
2023/12/04 06:04:32;;;;;;;0.90;0.90;;;;;;;2.08;100.00;101630.22;5040747;28;20640;-78
2023/12/04 06:06:58;;;;;;;0.40;0.40;;;;;;;2.27;100.00;101647.63;5061147;28;20127;-84
2023/12/04 06:09:26;;;;;;;0.40;0.40;;;;;;;2.31;100.00;101646.97;5055524;28;20060;-81
2023/12/04 06:11:52;;;;;;;0.30;0.30;;;;;;;1.65;100.00;101603.69;5059889;28;20143;-81
2023/12/04 06:14:17;;;;;;;3.00;2.88;;;;;;;1.54;100.00;101608.25;5037090;28;20044;-79
2023/12/04 06:16:43;;;;;;;0.40;0.40;;;;;;;1.52;100.00;101547.78;5058539;28;20032;-74
2023/12/04 06:19:08;;;;;;;1.52;1.48;;;;;;;1.65;100.00;101572.66;5056447;28;20420;-72
2023/12/04 06:21:34;;;;;;;1.45;1.38;;;;;;;2.02;100.00;101621.22;5055076;28;20140;-74
2023/12/04 06:23:59;;;;;;;0.50;0.50;;;;;;;1.47;100.00;101544.97;5041217;28;20070;-72
2023/12/04 06:26:25;;;;;;;0.95;0.82;;;;;;;1.86;100.00;101658.31;5055778;28;21132;-75
2023/12/04 06:28:51;;;;;;;2.40;2.30;;;;;;;0.96;100.00;101533.50;5056599;28;20075;-78
2023/12/04 06:31:17;;;;;;;1.80;1.45;;;;;;;1.24;100.00;101535.94;5051546;28;20627;-83
2023/12/04 06:33:43;;;;;;;1.13;1.08;;;;;;;2.09;100.00;101669.94;5050457;28;20056;-78
2023/12/04 06:36:12;;;;;;;0.85;0.82;;;;;;;2.09;100.00;101664.75;5040252;28;20140;-78
2023/12/04 06:38:40;;;;;;;0.65;0.65;;;;;;;2.22;100.00;101661.13;5041183;28;20055;-78
2023/12/04 06:41:06;;;;;;;1.63;0.90;;;;;;;2.23;100.00;101657.75;5060707;28;20049;-76
2023/12/04 06:43:32;;;;;;;0.50;0.50;;;;;;;1.67;100.00;101552.94;5056277;28;20102;-74
2023/12/04 06:46:00;;;;;;;0.40;0.40;;;;;;;1.77;100.00;101564.66;5055007;28;20060;-76
2023/12/04 06:48:27;;;;;;;1.55;1.50;;;;;;;2.18;100.00;101654.91;5050463;28;20131;-74
2023/12/04 06:50:53;;;;;;;1.25;1.15;;;;;;;2.21;100.00;101651.59;5034988;28;20135;-77
2023/12/04 06:53:18;;;;;;;1.10;1.00;;;;;;;1.80;100.00;101555.38;5056823;28;20040;-78
2023/12/04 06:55:44;;;;;;;1.23;1.20;;;;;;;2.22;100.00;101658.53;5055238;28;20746;-75
2023/12/04 06:58:09;;;;;;;1.15;1.15;;;;;;;1.56;100.00;101575.59;5056166;28;20082;-76
2023/12/04 07:00:35;;;;;;;0.60;0.60;;;;;;;1.86;100.00;101612.63;5057931;28;20048;-75
2023/12/04 07:03:00;;;;;;;1.60;1.50;;;;;;;2.19;100.00;101669.63;5063975;28;20044;-76
2023/12/04 07:05:26;;;;;;;0.50;0.50;;;;;;;1.58;100.00;101561.06;5064406;28;20048;-76
2023/12/04 07:07:53;;;;;;;7.72;7.07;;;;;;;1.65;100.00;101570.94;5064825;28;20040;-74
2023/12/04 07:10:18;;;;;;;1.05;0.95;;;;;;;1.76;100.00;101586.19;5061348;28;20064;-73
2023/12/04 07:12:45;;;;;;;0.50;0.50;;;;;;;1.70;100.00;101573.78;5056537;28;20051;-78
2023/12/04 07:15:11;;;;;;;0.63;0.63;;;;;;;1.76;100.00;101578.41;5062571;28;20108;-82
2023/12/04 07:17:37;;;;;;;0.50;0.50;;;;;;;2.33;100.00;101683.31;5063470;28;20084;-73
2023/12/04 07:20:06;;;;;;;0.60;0.60;;;;;;;1.92;100.00;101606.00;5060976;28;20036;-77
2023/12/04 07:22:32;;;;;;;2.35;2.25;;;;;;;1.80;100.00;101591.59;5027615;28;20053;-76
2023/12/04 07:24:59;;;;;;;0.40;0.40;;;;;;;2.09;100.00;101644.06;5028842;28;20053;-75
2023/12/04 07:27:26;;;;;;;0.82;0.82;;;;;;;2.37;100.00;101713.75;5060616;28;20487;-75
2023/12/04 07:29:52;;;;;;;2.05;1.95;;;;;;;2.38;100.00;101696.50;5057647;28;20683;-76
2023/12/04 07:32:20;;;;;;;0.77;0.77;;;;;;;1.81;100.00;101606.31;5061704;28;20031;-76
2023/12/04 07:34:45;;;;;;;1.27;1.20;;;;;;;1.93;100.00;101620.72;5058600;28;20028;-73
2023/12/04 07:37:11;;;;;;;0.40;0.40;;;;;;;1.82;100.00;101614.97;5047280;28;20112;-78
2023/12/04 07:39:37;;;;;;;1.30;0.82;;;;;;;1.78;100.00;101603.56;5047274;28;20094;-76
2023/12/04 07:42:03;;;;;;;0.30;0.30;;;;;;;1.94;100.00;101633.72;5062464;28;20571;-74
2023/12/04 07:44:28;;;;;;;0.68;0.68;;;;;;;1.75;100.00;101589.56;5060003;28;20110;-75
2023/12/04 07:46:54;;;;;;;2.50;2.40;;;;;;;2.62;100.00;101731.53;5063661;28;20060;-75
2023/12/04 07:49:19;;;;;;;2.72;2.63;;;;;;;1.96;100.00;101605.34;5059930;28;20043;-78
2023/12/04 07:51:45;;;;;;;0.30;0.30;;;;;;;1.90;100.00;101599.03;5053714;28;20068;-77
2023/12/04 07:54:11;;;;;;;0.40;0.40;;;;;;;2.11;100.00;101632.09;5060509;28;20542;-79
2023/12/04 07:56:36;;;;;;;0.45;0.45;;;;;;;1.96;100.00;101683.00;5062468;28;20052;-75
2023/12/04 07:59:02;;;;;;;0.60;0.60;;;;;;;1.23;100.00;101634.97;5069997;28;20058;-77
2023/12/04 08:01:27;;;;;;;1.17;1.17;;;;;;;1.22;100.00;101598.72;5056829;28;20059;-75
2023/12/04 08:03:53;;;;;;;5.25;5.05;;;;;;;1.77;100.00;101596.59;5059883;28;20453;-75
2023/12/04 08:06:19;;;;;;;0.50;0.50;;;;;;;2.09;100.00;101704.47;5058698;28;20127;-74
2023/12/04 08:08:45;;;;;;;0.40;0.40;;;;;;;1.97;100.00;101601.97;5060084;28;20095;-81
2023/12/04 08:11:11;;;;;;;0.52;0.52;;;;;;;1.67;100.00;101561.56;5054291;28;20332;-78
2023/12/04 08:13:38;;;;;;;0.50;0.50;;;;;;;2.63;100.00;101697.00;5057820;28;20036;-77
2023/12/04 08:16:04;;;;;;;0.50;0.50;;;;;;;2.65;100.00;101679.84;5060946;28;20075;-78
2023/12/04 08:18:30;;;;;;;7.82;7.20;;;;;;;2.64;100.00;101678.06;5039406;28;20061;-74
2023/12/04 08:20:55;;;;;;;1.52;1.50;;;;;;;2.71;100.00;101695.69;5054200;28;20047;-74
2023/12/04 08:23:21;;;;;;;0.20;0.20;;;;;;;1.86;100.00;101586.75;5055695;28;20040;-76
2023/12/04 08:25:46;;;;;;;0.70;0.70;;;;;;;2.59;100.00;101696.78;5061124;28;20037;-74
2023/12/04 08:28:12;;;;;;;0.47;0.47;;;;;;;2.50;100.00;101674.72;5063606;28;20079;-75
2023/12/04 08:30:38;;;;;;;0.40;0.40;;;;;;;2.38;100.00;101665.44;5057786;28;20045;-76
2023/12/04 08:33:04;;;;;;;0.45;0.45;;;;;;;2.66;100.00;101678.13;5067016;28;20048;-74
2023/12/04 08:35:30;;;;;;;0.40;0.40;;;;;;;1.95;100.00;101582.88;5066909;28;20118;-75
2023/12/04 08:37:55;;;;;;;0.43;0.43;;;;;;;2.61;100.00;101659.75;5071082;28;20112;-74
2023/12/04 08:40:21;;;;;;;0.75;0.75;;;;;;;2.58;100.00;101654.44;5048620;28;20139;-78
2023/12/04 08:42:46;;;;;;;1.52;1.45;;;;;;;2.35;100.00;101676.53;5067400;28;20465;-74
2023/12/04 08:45:13;;;;;;;0.40;0.40;;;;;;;2.54;100.00;101691.34;5064465;28;20052;-79
2023/12/04 08:47:38;;;;;;;0.43;0.43;;;;;;;1.93;100.00;101615.56;5065239;28;20132;-77
2023/12/04 08:50:04;;;;;;;0.47;0.47;;;;;;;2.56;100.00;101702.69;5066896;28;20068;-76
2023/12/04 08:52:30;;;;;;;1.85;1.75;;;;;;;1.94;100.00;101594.03;5064688;28;20056;-76
2023/12/04 08:54:56;;;;;;;0.60;0.60;;;;;;;2.84;100.00;101699.84;5064751;28;20048;-76
2023/12/04 08:57:21;;;;;;;0.40;0.40;;;;;;;2.57;100.00;101656.94;5061711;28;20070;-76
2023/12/04 08:59:47;;;;;;;0.50;0.50;;;;;;;2.83;100.00;101700.63;5064620;28;20088;-77
2023/12/04 09:02:12;;;;;;;0.50;0.50;;;;;;;2.03;100.00;101659.25;5060830;28;20068;-77
2023/12/04 09:04:38;;;;;;;0.57;0.57;;;;;;;1.63;100.00;101582.91;5065080;28;20036;-75
2023/12/04 09:07:03;;;;;;;0.70;0.70;;;;;;;2.18;100.00;101618.66;5058351;28;20052;-76
2023/12/04 09:09:29;;;;;;;1.27;1.20;;;;;;;1.65;100.00;101588.16;5046813;28;20075;-75
2023/12/04 09:11:54;;;;;;;0.50;0.50;;;;;;;2.67;100.00;101690.28;5061514;28;20052;-77
2023/12/04 09:14:20;;;;;;;1.33;1.23;;;;;;;2.06;100.00;101599.84;5062409;28;20084;-75
2023/12/04 09:16:46;;;;;;;0.50;0.50;;;;;;;2.45;100.00;101676.19;5060070;28;20123;-77
2023/12/04 09:19:11;;;;;;;6.90;4.88;;;;;;;2.02;100.00;101597.94;5063918;28;20503;-74
2023/12/04 09:21:37;;;;;;;0.40;0.40;;;;;;;2.09;100.00;101587.09;5061852;28;20047;-76
2023/12/04 09:24:03;;;;;;;2.67;2.58;;;;;;;2.39;100.00;101631.84;5059755;28;20053;-77
2023/12/04 09:26:28;;;;;;;0.63;0.63;;;;;;;2.46;100.00;101685.75;5046012;28;20044;-76
2023/12/04 09:28:54;;;;;;;0.47;0.47;;;;;;;1.43;100.00;101566.28;5068584;28;20035;-74
2023/12/04 09:31:19;;;;;;;1.95;1.85;;;;;;;2.09;100.00;101694.13;5032756;28;20487;-76
2023/12/04 09:33:47;;;;;;;6.65;6.32;;;;;;;2.57;100.00;101696.69;5043066;28;20106;-75
2023/12/04 09:36:12;;;;;;;1.13;1.10;;;;;;;2.69;100.00;101688.66;5060739;28;20067;-76
2023/12/04 09:38:38;;;;;;;0.55;0.55;;;;;;;2.30;100.00;101642.59;5051087;28;20044;-75
2023/12/04 09:41:06;;;;;;;3.47;2.85;;;;;;;2.39;100.00;101704.38;5065483;28;20048;-74
2023/12/04 09:43:32;;;;;;;0.50;0.50;;;;;;;2.28;100.00;101641.63;5060800;28;20071;-80
2023/12/04 09:45:59;;;;;;;1.10;1.00;;;;;;;1.48;100.00;101576.91;5060038;28;20036;-76
2023/12/04 09:48:26;;;;;;;4.15;3.92;;;;;;;1.92;100.00;101590.47;5068264;28;20056;-76
2023/12/04 09:50:53;;;;;;;2.45;2.35;;;;;;;1.80;100.00;101545.03;5062005;28;20048;-77
2023/12/04 09:53:20;;;;;;;0.30;0.30;;;;;;;1.58;100.00;101666.25;5033725;28;20029;-76
2023/12/04 09:55:52;;;;;;;0.52;0.52;;;;;;;1.10;100.00;101561.81;5060131;28;20032;-76
2023/12/04 09:58:25;;;;;;;0.90;0.90;;;;;;;1.13;100.00;101502.56;5059323;28;20102;-77
2023/12/04 10:00:54;;;;;;;1.03;0.80;;;;;;;2.47;100.00;101660.75;5059362;28;20078;-74
2023/12/04 10:03:20;;;;;;;0.60;0.60;;;;;;;2.22;100.00;101635.22;5060400;28;20063;-79
2023/12/04 10:05:47;;;;;;;0.45;0.45;;;;;;;2.68;100.00;101669.63;5060773;28;20056;-74
2023/12/04 10:08:13;;;;;;;1.45;1.30;;;;;;;2.71;100.00;101679.25;5058736;28;20139;-77
2023/12/04 10:10:39;;;;;;;0.45;0.45;;;;;;;2.31;100.00;101584.81;5055810;28;20454;-76
2023/12/04 10:13:06;;;;;;;0.40;0.40;;;;;;;2.88;100.00;101673.28;5058772;28;20159;-75
2023/12/04 10:15:33;;;;;;;1.00;0.95;;;;;;;2.01;100.00;101549.53;5058155;28;20037;-76
2023/12/04 10:17:58;;;;;;;1.75;1.65;;;;;;;2.73;100.00;101618.94;5063204;28;20526;-75
2023/12/04 10:20:24;;;;;;;19.85;6.97;;;;;;;1.70;100.00;101568.59;5043478;28;20056;-77
2023/12/04 10:22:57;;;;;;;0.50;0.50;;;;;;;2.63;100.00;101681.47;5054883;28;20072;-78
2023/12/04 10:25:28;;;;;;;3.07;2.83;;;;;;;2.26;100.00;101560.38;5061079;28;20083;-76
2023/12/04 10:27:55;;;;;;;5.13;4.88;;;;;;;2.69;100.00;101613.50;5065769;28;20495;-77
2023/12/04 10:30:30;;;;;;;0.70;0.70;;;;;;;2.29;100.00;101581.28;5063659;28;20495;-76
2023/12/04 10:33:00;;;;;;;0.40;0.40;;;;;;;2.22;100.00;101504.06;5062957;28;20044;-77
2023/12/04 10:35:28;;;;;;;9.05;8.60;;;;;;;2.42;100.00;101667.38;5057690;28;20056;-76
2023/12/04 10:37:55;;;;;;;0.57;0.57;;;;;;;2.00;100.00;101538.31;5066892;28;20087;-75
2023/12/04 10:40:25;;;;;;;0.38;0.38;;;;;;;3.16;100.00;101652.22;5063195;28;20143;-75
2023/12/04 10:43:13;;;;;;;0.40;0.40;;;;;;;2.43;100.00;101534.47;5063764;28;20045;-75
2023/12/04 10:45:40;;;;;;;1.65;1.55;;;;;;;2.52;100.00;101660.16;5036354;28;20052;-74
2023/12/04 10:48:06;;;;;;;3.00;2.85;;;;;;;0.95;100.00;101459.34;5066808;28;20048;-74
2023/12/04 10:50:40;;;;;;;0.73;0.73;;;;;;;1.92;100.00;101624.09;5048141;28;20396;-73
2023/12/04 10:53:07;;;;;;;0.50;0.50;;;;;;;2.18;100.00;101662.69;5062733;28;20722;-76
2023/12/04 10:55:33;;;;;;;0.38;0.38;;;;;;;2.83;100.00;101648.78;5066390;28;20028;-76
2023/12/04 10:58:01;;;;;;;0.40;0.40;;;;;;;2.61;100.00;101565.59;5061115;28;20040;-73
2023/12/04 11:00:29;;;;;;;0.40;0.40;;;;;;;1.59;100.00;101524.06;5059880;28;20056;-73
2023/12/04 11:02:58;;;;;;;1.27;1.25;;;;;;;2.60;100.00;101632.09;5055679;28;20037;-75
2023/12/04 11:05:25;;;;;;;0.32;0.32;;;;;;;2.07;100.00;101516.22;5059598;28;20028;-76
2023/12/04 11:07:56;;;;;;;3.15;2.92;;;;;;;2.76;100.00;101633.75;5064191;28;20116;-75
2023/12/04 11:10:25;;;;;;;1.27;1.20;;;;;;;2.28;100.00;101527.69;5022408;28;20060;-75
2023/12/04 11:13:15;;;;;;;1.02;0.95;;;;;;;3.09;100.00;101626.81;5053278;28;20127;-76
2023/12/04 11:15:45;;;;;;;7.43;3.70;;;;;;;3.02;100.00;101546.94;5054511;28;20052;-82
2023/12/04 11:18:14;;;;;;;0.50;0.50;;;;;;;3.46;100.00;101521.31;5056905;28;20567;-77
2023/12/04 11:20:48;;;;;;;0.82;0.70;;;;;;;3.75;100.00;101567.69;5058806;28;20170;-75